Whitwell, Tennessee
Current Conditions -  °F | °C
As of 7:53 PM on Wednesday 26 Nov 2014 (Local Time) from KCHA Reporting Station
Light Rain Light Rain  
Wind Chill: 10°   Ceiling: 5500
Heat Index: 10°   Visibility: 10mi
Dew Point: -1°   Wind: 13mph
Humidity: 48%   Direction: 230°SW
Pressure: 30.05"   Gusts: NA
Location:  35.2°N, 85.52°W
Report Text: KCHA 270153Z 23011KT 10SM -RA BKN055 OVC070 10/M01 A3005 RMK AO2 RAB53 SLP177 P0000 T01001006
Loading
Personal Weather Stations






























Interactive Weather Map New forecast layout! Learn more

10-Day Weather Forecast

Advertisements
Track Severe Weather on mobile